sensor_id;sensor_type;location;lat;lon;timestamp;P1;durP1;ratioP1;P2;durP2;ratioP2
38940;SDS011;43236;47.208;7.518;2024-01-15T00:01:51;18.67;;;8.77;;
38940;SDS011;43236;47.208;7.518;2024-01-15T00:04:38;15.18;;;9.90;;
38940;SDS011;43236;47.208;7.518;2024-01-15T00:07:25;12.52;;;8.77;;
38940;SDS011;43236;47.208;7.518;2024-01-15T00:10:12;16.65;;;8.85;;
38940;SDS011;43236;47.208;7.518;2024-01-15T00:13:01;18.77;;;9.30;;
38940;SDS011;43236;47.208;7.518;2024-01-15T00:15:48;13.65;;;6.70;;
38940;SDS011;43236;47.208;7.518;2024-01-15T00:18:35;11.95;;;7.22;;
38940;SDS011;43236;47.208;7.518;2024-01-15T00:21:22;14.93;;;8.15;;
38940;SDS011;43236;47.208;7.518;2024-01-15T00:24:09;13.15;;;7.50;;
38940;SDS011;43236;47.208;7.518;2024-01-15T00:26:57;12.32;;;7.32;;
38940;SDS011;43236;47.208;7.518;2024-01-15T00:29:46;9.85;;;5.80;;
38940;SDS011;43236;47.208;7.518;2024-01-15T00:32:33;16.65;;;8.18;;
38940;SDS011;43236;47.208;7.518;2024-01-15T00:35:21;23.13;;;8.50;;
38940;SDS011;43236;47.208;7.518;2024-01-15T00:38:08;12.27;;;6.93;;
38940;SDS011;43236;47.208;7.518;2024-01-15T00:40:55;20.90;;;9.85;;
38940;SDS011;43236;47.208;7.518;2024-01-15T00:43:42;20.15;;;10.80;;
38940;SDS011;43236;47.208;7.518;2024-01-15T00:46:30;17.00;;;9.35;;
38940;SDS011;43236;47.208;7.518;2024-01-15T00:49:17;10.73;;;6.38;;
38940;SDS011;43236;47.208;7.518;2024-01-15T00:52:04;9.60;;;6.15;;
38940;SDS011;43236;47.208;7.518;2024-01-15T00:54:52;13.50;;;6.32;;
38940;SDS011;43236;47.208;7.518;2024-01-15T00:57:39;12.43;;;6.88;;
38940;SDS011;43236;47.208;7.518;2024-01-15T01:00:26;8.13;;;6.07;;
38940;SDS011;43236;47.208;7.518;2024-01-15T01:03:15;11.45;;;6.45;;
38940;SDS011;43236;47.208;7.518;2024-01-15T01:06:02;9.75;;;6.32;;
38940;SDS011;43236;47.208;7.518;2024-01-15T01:08:50;9.85;;;6.20;;
38940;SDS011;43236;47.208;7.518;2024-01-15T01:11:37;10.55;;;5.30;;
38940;SDS011;43236;47.208;7.518;2024-01-15T01:14:24;7.65;;;5.53;;
38940;SDS011;43236;47.208;7.518;2024-01-15T01:17:12;6.05;;;4.63;;
38940;SDS011;43236;47.208;7.518;2024-01-15T01:20:00;7.15;;;4.80;;
38940;SDS011;43236;47.208;7.518;2024-01-15T01:22:49;12.13;;;5.68;;
38940;SDS011;43236;47.208;7.518;2024-01-15T01:25:36;6.43;;;4.35;;
38940;SDS011;43236;47.208;7.518;2024-01-15T01:28:23;9.38;;;6.10;;
38940;SDS011;43236;47.208;7.518;2024-01-15T01:31:10;6.10;;;4.28;;
38940;SDS011;43236;47.208;7.518;2024-01-15T01:33:58;5.75;;;4.50;;
38940;SDS011;43236;47.208;7.518;2024-01-15T01:36:46;9.70;;;5.18;;
38940;SDS011;43236;47.208;7.518;2024-01-15T01:39:33;9.63;;;4.47;;
38940;SDS011;43236;47.208;7.518;2024-01-15T01:42:20;8.52;;;5.57;;
38940;SDS011;43236;47.208;7.518;2024-01-15T01:45:10;7.22;;;4.78;;
38940;SDS011;43236;47.208;7.518;2024-01-15T01:47:57;8.80;;;5.50;;
38940;SDS011;43236;47.208;7.518;2024-01-15T01:50:45;8.57;;;4.65;;
38940;SDS011;43236;47.208;7.518;2024-01-15T01:53:34;8.32;;;5.97;;
38940;SDS011;43236;47.208;7.518;2024-01-15T01:56:23;7.35;;;4.22;;
38940;SDS011;43236;47.208;7.518;2024-01-15T01:59:10;10.73;;;4.97;;
38940;SDS011;43236;47.208;7.518;2024-01-15T02:01:58;9.18;;;4.25;;
38940;SDS011;43236;47.208;7.518;2024-01-15T02:04:49;7.90;;;5.43;;
38940;SDS011;43236;47.208;7.518;2024-01-15T02:07:36;7.07;;;4.40;;
38940;SDS011;43236;47.208;7.518;2024-01-15T02:10:25;8.70;;;4.93;;
38940;SDS011;43236;47.208;7.518;2024-01-15T02:13:12;10.23;;;5.07;;
38940;SDS011;43236;47.208;7.518;2024-01-15T02:15:59;10.82;;;5.05;;
38940;SDS011;43236;47.208;7.518;2024-01-15T02:18:46;6.18;;;5.30;;
38940;SDS011;43236;47.208;7.518;2024-01-15T02:21:33;6.43;;;4.15;;
38940;SDS011;43236;47.208;7.518;2024-01-15T02:24:22;7.72;;;4.93;;
38940;SDS011;43236;47.208;7.518;2024-01-15T02:27:09;8.60;;;5.70;;
38940;SDS011;43236;47.208;7.518;2024-01-15T02:29:56;7.13;;;5.03;;
38940;SDS011;43236;47.208;7.518;2024-01-15T02:32:44;7.72;;;4.68;;
38940;SDS011;43236;47.208;7.518;2024-01-15T02:35:32;9.63;;;4.13;;
38940;SDS011;43236;47.208;7.518;2024-01-15T02:38:21;5.18;;;3.95;;
38940;SDS011;43236;47.208;7.518;2024-01-15T02:41:10;7.78;;;4.18;;
38940;SDS011;43236;47.208;7.518;2024-01-15T02:43:59;7.78;;;3.92;;
38940;SDS011;43236;47.208;7.518;2024-01-15T02:46:46;6.05;;;3.63;;
38940;SDS011;43236;47.208;7.518;2024-01-15T02:49:33;6.15;;;3.75;;
38940;SDS011;43236;47.208;7.518;2024-01-15T02:52:20;9.40;;;3.78;;
38940;SDS011;43236;47.208;7.518;2024-01-15T02:55:07;7.70;;;4.10;;
38940;SDS011;43236;47.208;7.518;2024-01-15T02:57:56;5.68;;;5.13;;
38940;SDS011;43236;47.208;7.518;2024-01-15T03:00:44;5.50;;;3.20;;
38940;SDS011;43236;47.208;7.518;2024-01-15T03:03:31;10.05;;;4.32;;
38940;SDS011;43236;47.208;7.518;2024-01-15T03:06:18;5.55;;;3.85;;
38940;SDS011;43236;47.208;7.518;2024-01-15T03:09:05;4.45;;;3.65;;
38940;SDS011;43236;47.208;7.518;2024-01-15T03:11:53;5.20;;;3.70;;
38940;SDS011;43236;47.208;7.518;2024-01-15T03:14:41;6.72;;;3.78;;
38940;SDS011;43236;47.208;7.518;2024-01-15T03:17:28;5.00;;;2.78;;
38940;SDS011;43236;47.208;7.518;2024-01-15T03:20:15;5.05;;;3.83;;
38940;SDS011;43236;47.208;7.518;2024-01-15T03:23:03;5.53;;;3.35;;
38940;SDS011;43236;47.208;7.518;2024-01-15T03:25:50;6.63;;;4.22;;
38940;SDS011;43236;47.208;7.518;2024-01-15T03:28:37;5.47;;;2.75;;
38940;SDS011;43236;47.208;7.518;2024-01-15T03:31:26;5.70;;;4.03;;
38940;SDS011;43236;47.208;7.518;2024-01-15T03:34:13;6.97;;;3.75;;
38940;SDS011;43236;47.208;7.518;2024-01-15T03:37:00;4.07;;;3.50;;
38940;SDS011;43236;47.208;7.518;2024-01-15T03:39:50;7.30;;;2.80;;
38940;SDS011;43236;47.208;7.518;2024-01-15T03:42:37;6.68;;;3.90;;
38940;SDS011;43236;47.208;7.518;2024-01-15T03:45:25;5.38;;;3.47;;
38940;SDS011;43236;47.208;7.518;2024-01-15T03:48:13;2.92;;;2.70;;
38940;SDS011;43236;47.208;7.518;2024-01-15T03:51:00;4.45;;;2.78;;
38940;SDS011;43236;47.208;7.518;2024-01-15T03:53:47;2.92;;;2.53;;
38940;SDS011;43236;47.208;7.518;2024-01-15T03:56:34;4.65;;;3.28;;
38940;SDS011;43236;47.208;7.518;2024-01-15T03:59:21;5.60;;;3.05;;
38940;SDS011;43236;47.208;7.518;2024-01-15T04:02:09;5.28;;;2.45;;
38940;SDS011;43236;47.208;7.518;2024-01-15T04:04:57;7.72;;;3.40;;
38940;SDS011;43236;47.208;7.518;2024-01-15T04:07:44;5.22;;;2.92;;
38940;SDS011;43236;47.208;7.518;2024-01-15T04:10:31;4.20;;;3.13;;
38940;SDS011;43236;47.208;7.518;2024-01-15T04:13:19;5.80;;;2.78;;
38940;SDS011;43236;47.208;7.518;2024-01-15T04:16:06;3.95;;;2.35;;
38940;SDS011;43236;47.208;7.518;2024-01-15T04:18:53;2.78;;;2.28;;
38940;SDS011;43236;47.208;7.518;2024-01-15T04:21:41;2.58;;;2.10;;
38940;SDS011;43236;47.208;7.518;2024-01-15T04:24:28;4.50;;;2.47;;
38940;SDS011;43236;47.208;7.518;2024-01-15T04:27:18;5.00;;;2.30;;
38940;SDS011;43236;47.208;7.518;2024-01-15T04:30:05;4.50;;;1.80;;
38940;SDS011;43236;47.208;7.518;2024-01-15T04:32:53;2.25;;;1.67;;
38940;SDS011;43236;47.208;7.518;2024-01-15T04:35:40;3.97;;;2.30;;
38940;SDS011;43236;47.208;7.518;2024-01-15T04:38:29;2.70;;;1.63;;
38940;SDS011;43236;47.208;7.518;2024-01-15T04:41:16;2.60;;;1.80;;
38940;SDS011;43236;47.208;7.518;2024-01-15T04:44:03;3.58;;;1.85;;
38940;SDS011;43236;47.208;7.518;2024-01-15T04:46:50;1.85;;;1.75;;
38940;SDS011;43236;47.208;7.518;2024-01-15T04:49:37;1.83;;;1.50;;
38940;SDS011;43236;47.208;7.518;2024-01-15T04:52:24;1.98;;;1.42;;
38940;SDS011;43236;47.208;7.518;2024-01-15T04:55:15;1.42;;;1.25;;
38940;SDS011;43236;47.208;7.518;2024-01-15T04:58:02;1.98;;;1.80;;
38940;SDS011;43236;47.208;7.518;2024-01-15T05:00:49;2.92;;;1.88;;
38940;SDS011;43236;47.208;7.518;2024-01-15T05:03:36;2.53;;;1.67;;
38940;SDS011;43236;47.208;7.518;2024-01-15T05:06:24;1.33;;;1.23;;
38940;SDS011;43236;47.208;7.518;2024-01-15T05:09:11;2.67;;;1.52;;
38940;SDS011;43236;47.208;7.518;2024-01-15T05:12:01;1.70;;;1.48;;
38940;SDS011;43236;47.208;7.518;2024-01-15T05:14:48;1.92;;;1.58;;
38940;SDS011;43236;47.208;7.518;2024-01-15T05:17:35;2.50;;;1.83;;
38940;SDS011;43236;47.208;7.518;2024-01-15T05:20:22;2.35;;;2.15;;
38940;SDS011;43236;47.208;7.518;2024-01-15T05:23:09;2.80;;;1.77;;
38940;SDS011;43236;47.208;7.518;2024-01-15T05:25:56;1.85;;;1.58;;
38940;SDS011;43236;47.208;7.518;2024-01-15T05:28:45;3.55;;;1.80;;
38940;SDS011;43236;47.208;7.518;2024-01-15T05:31:32;3.17;;;1.98;;
38940;SDS011;43236;47.208;7.518;2024-01-15T05:34:19;2.80;;;1.38;;
38940;SDS011;43236;47.208;7.518;2024-01-15T05:37:06;4.30;;;2.47;;
38940;SDS011;43236;47.208;7.518;2024-01-15T05:39:53;2.20;;;1.92;;
38940;SDS011;43236;47.208;7.518;2024-01-15T05:42:41;1.55;;;1.42;;
38940;SDS011;43236;47.208;7.518;2024-01-15T05:45:30;5.35;;;1.90;;
38940;SDS011;43236;47.208;7.518;2024-01-15T05:48:17;2.90;;;2.00;;
38940;SDS011;43236;47.208;7.518;2024-01-15T05:51:04;2.20;;;1.92;;
38940;SDS011;43236;47.208;7.518;2024-01-15T05:53:51;3.63;;;2.42;;
38940;SDS011;43236;47.208;7.518;2024-01-15T05:56:38;2.67;;;1.70;;
38940;SDS011;43236;47.208;7.518;2024-01-15T05:59:25;2.10;;;1.55;;
38940;SDS011;43236;47.208;7.518;2024-01-15T06:02:15;2.83;;;1.60;;
38940;SDS011;43236;47.208;7.518;2024-01-15T06:05:02;2.33;;;2.00;;
38940;SDS011;43236;47.208;7.518;2024-01-15T06:07:49;3.05;;;1.48;;
38940;SDS011;43236;47.208;7.518;2024-01-15T06:10:36;1.35;;;1.20;;
38940;SDS011;43236;47.208;7.518;2024-01-15T06:13:23;1.27;;;1.17;;
38940;SDS011;43236;47.208;7.518;2024-01-15T06:16:14;2.75;;;1.70;;
38940;SDS011;43236;47.208;7.518;2024-01-15T06:19:03;1.60;;;1.33;;
38940;SDS011;43236;47.208;7.518;2024-01-15T06:21:50;2.38;;;1.33;;
38940;SDS011;43236;47.208;7.518;2024-01-15T06:24:37;1.23;;;1.17;;
38940;SDS011;43236;47.208;7.518;2024-01-15T06:27:24;1.30;;;1.20;;
38940;SDS011;43236;47.208;7.518;2024-01-15T06:30:12;1.20;;;1.10;;
38940;SDS011;43236;47.208;7.518;2024-01-15T06:32:59;1.85;;;1.42;;
38940;SDS011;43236;47.208;7.518;2024-01-15T06:35:48;1.05;;;1.05;;
38940;SDS011;43236;47.208;7.518;2024-01-15T06:38:35;1.20;;;1.10;;
38940;SDS011;43236;47.208;7.518;2024-01-15T06:41:23;2.33;;;1.20;;
38940;SDS011;43236;47.208;7.518;2024-01-15T06:44:11;1.38;;;1.27;;
38940;SDS011;43236;47.208;7.518;2024-01-15T06:46:58;2.33;;;1.38;;
38940;SDS011;43236;47.208;7.518;2024-01-15T06:49:47;2.85;;;2.05;;
38940;SDS011;43236;47.208;7.518;2024-01-15T06:52:37;2.13;;;1.23;;
38940;SDS011;43236;47.208;7.518;2024-01-15T06:55:24;2.83;;;1.23;;
38940;SDS011;43236;47.208;7.518;2024-01-15T06:58:11;1.75;;;1.35;;
38940;SDS011;43236;47.208;7.518;2024-01-15T07:00:58;1.20;;;1.10;;
38940;SDS011;43236;47.208;7.518;2024-01-15T07:03:46;3.30;;;1.52;;
38940;SDS011;43236;47.208;7.518;2024-01-15T07:06:34;1.92;;;1.73;;
38940;SDS011;43236;47.208;7.518;2024-01-15T07:09:23;1.40;;;1.30;;
38940;SDS011;43236;47.208;7.518;2024-01-15T07:12:12;1.40;;;1.30;;
38940;SDS011;43236;47.208;7.518;2024-01-15T07:14:59;1.35;;;1.23;;
38940;SDS011;43236;47.208;7.518;2024-01-15T07:17:47;1.23;;;1.10;;
38940;SDS011;43236;47.208;7.518;2024-01-15T07:20:34;2.53;;;1.90;;
38940;SDS011;43236;47.208;7.518;2024-01-15T07:23:21;3.05;;;1.83;;
38940;SDS011;43236;47.208;7.518;2024-01-15T07:26:10;1.50;;;1.25;;
38940;SDS011;43236;47.208;7.518;2024-01-15T07:28:57;1.63;;;1.10;;
38940;SDS011;43236;47.208;7.518;2024-01-15T07:31:47;1.88;;;1.40;;
38940;SDS011;43236;47.208;7.518;2024-01-15T07:34:35;3.15;;;1.77;;
38940;SDS011;43236;47.208;7.518;2024-01-15T07:37:22;2.58;;;1.90;;
38940;SDS011;43236;47.208;7.518;2024-01-15T07:40:10;3.88;;;2.00;;
38940;SDS011;43236;47.208;7.518;2024-01-15T07:42:59;3.30;;;2.50;;
38940;SDS011;43236;47.208;7.518;2024-01-15T07:45:46;4.03;;;2.70;;
38940;SDS011;43236;47.208;7.518;2024-01-15T07:48:33;2.83;;;1.90;;
38940;SDS011;43236;47.208;7.518;2024-01-15T07:51:20;2.10;;;1.92;;
38940;SDS011;43236;47.208;7.518;2024-01-15T07:54:07;2.35;;;1.70;;
38940;SDS011;43236;47.208;7.518;2024-01-15T07:56:55;3.42;;;2.47;;
38940;SDS011;43236;47.208;7.518;2024-01-15T07:59:44;2.40;;;1.75;;
38940;SDS011;43236;47.208;7.518;2024-01-15T08:02:31;1.45;;;1.30;;
38940;SDS011;43236;47.208;7.518;2024-01-15T08:05:18;3.47;;;1.80;;
38940;SDS011;43236;47.208;7.518;2024-01-15T08:08:06;3.47;;;2.10;;
38940;SDS011;43236;47.208;7.518;2024-01-15T08:10:53;3.40;;;2.97;;
38940;SDS011;43236;47.208;7.518;2024-01-15T08:13:40;3.15;;;2.45;;
38940;SDS011;43236;47.208;7.518;2024-01-15T08:16:29;2.97;;;2.03;;
38940;SDS011;43236;47.208;7.518;2024-01-15T08:19:16;4.35;;;3.05;;
38940;SDS011;43236;47.208;7.518;2024-01-15T08:22:03;4.60;;;2.78;;
38940;SDS011;43236;47.208;7.518;2024-01-15T08:24:50;2.50;;;2.03;;
38940;SDS011;43236;47.208;7.518;2024-01-15T08:27:38;3.05;;;2.38;;
38940;SDS011;43236;47.208;7.518;2024-01-15T08:30:25;3.33;;;2.70;;
38940;SDS011;43236;47.208;7.518;2024-01-15T08:33:14;3.45;;;2.38;;
38940;SDS011;43236;47.208;7.518;2024-01-15T08:36:02;3.38;;;2.72;;
38940;SDS011;43236;47.208;7.518;2024-01-15T08:38:49;3.13;;;2.38;;
38940;SDS011;43236;47.208;7.518;2024-01-15T08:41:37;5.07;;;2.80;;
38940;SDS011;43236;47.208;7.518;2024-01-15T08:44:24;3.90;;;3.00;;
38940;SDS011;43236;47.208;7.518;2024-01-15T08:47:11;4.10;;;2.55;;
38940;SDS011;43236;47.208;7.518;2024-01-15T08:49:59;4.00;;;2.70;;
38940;SDS011;43236;47.208;7.518;2024-01-15T08:52:47;3.35;;;2.40;;
38940;SDS011;43236;47.208;7.518;2024-01-15T08:55:34;5.85;;;3.17;;
38940;SDS011;43236;47.208;7.518;2024-01-15T08:58:22;2.72;;;2.28;;
38940;SDS011;43236;47.208;7.518;2024-01-15T09:01:10;2.47;;;1.98;;
38940;SDS011;43236;47.208;7.518;2024-01-15T09:03:57;7.22;;;2.92;;
38940;SDS011;43236;47.208;7.518;2024-01-15T09:06:45;2.88;;;2.00;;
38940;SDS011;43236;47.208;7.518;2024-01-15T09:09:33;4.03;;;2.00;;
38940;SDS011;43236;47.208;7.518;2024-01-15T09:12:20;2.58;;;2.35;;
38940;SDS011;43236;47.208;7.518;2024-01-15T09:15:07;2.88;;;2.45;;
38940;SDS011;43236;47.208;7.518;2024-01-15T09:17:55;3.47;;;3.03;;
38940;SDS011;43236;47.208;7.518;2024-01-15T09:20:42;4.03;;;2.40;;
38940;SDS011;43236;47.208;7.518;2024-01-15T09:23:31;3.33;;;3.03;;
38940;SDS011;43236;47.208;7.518;2024-01-15T09:26:18;4.63;;;2.63;;
38940;SDS011;43236;47.208;7.518;2024-01-15T09:29:05;2.53;;;2.33;;
38940;SDS011;43236;47.208;7.518;2024-01-15T09:31:53;4.72;;;2.47;;
38940;SDS011;43236;47.208;7.518;2024-01-15T09:34:40;2.22;;;2.00;;
38940;SDS011;43236;47.208;7.518;2024-01-15T09:37:30;3.10;;;2.72;;
38940;SDS011;43236;47.208;7.518;2024-01-15T09:40:18;8.60;;;3.80;;
38940;SDS011;43236;47.208;7.518;2024-01-15T09:43:07;4.07;;;2.88;;
38940;SDS011;43236;47.208;7.518;2024-01-15T09:45:54;3.25;;;2.47;;
38940;SDS011;43236;47.208;7.518;2024-01-15T09:48:42;5.18;;;3.03;;
38940;SDS011;43236;47.208;7.518;2024-01-15T09:51:30;5.22;;;2.60;;
38940;SDS011;43236;47.208;7.518;2024-01-15T09:54:18;3.55;;;2.35;;
38940;SDS011;43236;47.208;7.518;2024-01-15T09:57:08;3.45;;;2.45;;
38940;SDS011;43236;47.208;7.518;2024-01-15T09:59:55;6.30;;;3.78;;
38940;SDS011;43236;47.208;7.518;2024-01-15T10:02:45;3.63;;;2.90;;
38940;SDS011;43236;47.208;7.518;2024-01-15T10:05:33;4.80;;;2.40;;
38940;SDS011;43236;47.208;7.518;2024-01-15T10:08:20;4.00;;;2.67;;
38940;SDS011;43236;47.208;7.518;2024-01-15T10:11:10;3.90;;;2.70;;
38940;SDS011;43236;47.208;7.518;2024-01-15T10:13:58;3.38;;;2.47;;
38940;SDS011;43236;47.208;7.518;2024-01-15T10:16:46;3.13;;;2.40;;
38940;SDS011;43236;47.208;7.518;2024-01-15T10:19:33;3.17;;;2.35;;
38940;SDS011;43236;47.208;7.518;2024-01-15T10:22:20;3.63;;;2.60;;
38940;SDS011;43236;47.208;7.518;2024-01-15T10:24:59;2.90;;;2.10;;
38940;SDS011;43236;47.208;7.518;2024-01-15T10:27:47;5.18;;;2.58;;
38940;SDS011;43236;47.208;7.518;2024-01-15T10:30:47;3.38;;;2.30;;
38940;SDS011;43236;47.208;7.518;2024-01-15T10:33:38;4.25;;;2.72;;
38940;SDS011;43236;47.208;7.518;2024-01-15T10:36:25;2.55;;;2.35;;
38940;SDS011;43236;47.208;7.518;2024-01-15T10:39:13;5.78;;;3.10;;
38940;SDS011;43236;47.208;7.518;2024-01-15T10:42:00;4.07;;;3.03;;
38940;SDS011;43236;47.208;7.518;2024-01-15T10:44:47;4.60;;;2.97;;
38940;SDS011;43236;47.208;7.518;2024-01-15T10:47:35;3.25;;;2.78;;
38940;SDS011;43236;47.208;7.518;2024-01-15T10:50:23;3.53;;;3.03;;
38940;SDS011;43236;47.208;7.518;2024-01-15T10:53:10;3.92;;;2.38;;
38940;SDS011;43236;47.208;7.518;2024-01-15T10:55:58;4.00;;;3.45;;
38940;SDS011;43236;47.208;7.518;2024-01-15T10:58:46;4.15;;;3.33;;
38940;SDS011;43236;47.208;7.518;2024-01-15T11:01:34;4.88;;;2.33;;
38940;SDS011;43236;47.208;7.518;2024-01-15T11:04:22;3.22;;;2.85;;
38940;SDS011;43236;47.208;7.518;2024-01-15T11:07:12;2.70;;;1.98;;
38940;SDS011;43236;47.208;7.518;2024-01-15T11:10:02;3.35;;;2.13;;
38940;SDS011;43236;47.208;7.518;2024-01-15T11:12:50;4.60;;;3.17;;
38940;SDS011;43236;47.208;7.518;2024-01-15T11:15:56;4.20;;;2.85;;
38940;SDS011;43236;47.208;7.518;2024-01-15T11:21:54;3.85;;;3.25;;
38940;SDS011;43236;47.208;7.518;2024-01-15T11:24:41;5.18;;;3.30;;
38940;SDS011;43236;47.208;7.518;2024-01-15T11:27:39;7.75;;;3.45;;
38940;SDS011;43236;47.208;7.518;2024-01-15T11:30:27;4.03;;;2.22;;
38940;SDS011;43236;47.208;7.518;2024-01-15T11:36:19;3.40;;;2.55;;
38940;SDS011;43236;47.208;7.518;2024-01-15T11:42:19;4.32;;;2.25;;
38940;SDS011;43236;47.208;7.518;2024-01-15T11:45:07;3.25;;;2.30;;
38940;SDS011;43236;47.208;7.518;2024-01-15T11:48:00;1.98;;;1.25;;
38940;SDS011;43236;47.208;7.518;2024-01-15T11:50:57;1.40;;;1.30;;
38940;SDS011;43236;47.208;7.518;2024-01-15T11:53:47;1.58;;;1.48;;
38940;SDS011;43236;47.208;7.518;2024-01-15T11:56:39;2.40;;;1.25;;
38940;SDS011;43236;47.208;7.518;2024-01-15T11:59:27;0.77;;;0.77;;
38940;SDS011;43236;47.208;7.518;2024-01-15T12:02:15;0.93;;;0.73;;
38940;SDS011;43236;47.208;7.518;2024-01-15T12:05:02;1.30;;;1.20;;
38940;SDS011;43236;47.208;7.518;2024-01-15T12:07:49;2.58;;;1.65;;
38940;SDS011;43236;47.208;7.518;2024-01-15T12:10:37;3.22;;;1.55;;
38940;SDS011;43236;47.208;7.518;2024-01-15T12:13:25;2.42;;;1.08;;
38940;SDS011;43236;47.208;7.518;2024-01-15T12:16:15;1.23;;;1.00;;
38940;SDS011;43236;47.208;7.518;2024-01-15T12:19:02;1.17;;;0.98;;
38940;SDS011;43236;47.208;7.518;2024-01-15T12:21:50;0.80;;;0.80;;
38940;SDS011;43236;47.208;7.518;2024-01-15T12:24:37;1.17;;;1.08;;
38940;SDS011;43236;47.208;7.518;2024-01-15T12:27:24;1.80;;;1.67;;
38940;SDS011;43236;47.208;7.518;2024-01-15T12:30:12;0.95;;;0.93;;
38940;SDS011;43236;47.208;7.518;2024-01-15T12:33:02;2.72;;;1.13;;
38940;SDS011;43236;47.208;7.518;2024-01-15T12:35:52;0.60;;;0.60;;
38940;SDS011;43236;47.208;7.518;2024-01-15T12:38:39;1.52;;;0.80;;
38940;SDS011;43236;47.208;7.518;2024-01-15T12:41:26;0.73;;;0.73;;
38940;SDS011;43236;47.208;7.518;2024-01-15T12:44:13;1.40;;;0.95;;
38940;SDS011;43236;47.208;7.518;2024-01-15T12:47:00;1.38;;;1.27;;
38940;SDS011;43236;47.208;7.518;2024-01-15T12:49:50;2.83;;;1.20;;
38940;SDS011;43236;47.208;7.518;2024-01-15T12:52:40;1.35;;;1.25;;
38940;SDS011;43236;47.208;7.518;2024-01-15T12:55:27;2.80;;;1.08;;
38940;SDS011;43236;47.208;7.518;2024-01-15T12:58:14;0.75;;;0.60;;
38940;SDS011;43236;47.208;7.518;2024-01-15T13:01:01;1.48;;;1.02;;
38940;SDS011;43236;47.208;7.518;2024-01-15T13:03:48;1.05;;;1.00;;
38940;SDS011;43236;47.208;7.518;2024-01-15T13:06:36;0.90;;;0.90;;
38940;SDS011;43236;47.208;7.518;2024-01-15T13:09:24;0.65;;;0.65;;
38940;SDS011;43236;47.208;7.518;2024-01-15T13:12:11;0.80;;;0.80;;
38940;SDS011;43236;47.208;7.518;2024-01-15T13:14:58;1.63;;;1.00;;
38940;SDS011;43236;47.208;7.518;2024-01-15T13:17:45;0.77;;;0.77;;
38940;SDS011;43236;47.208;7.518;2024-01-15T13:20:32;0.77;;;0.77;;
38940;SDS011;43236;47.208;7.518;2024-01-15T13:23:20;0.82;;;0.82;;
38940;SDS011;43236;47.208;7.518;2024-01-15T13:26:07;1.48;;;0.52;;
38940;SDS011;43236;47.208;7.518;2024-01-15T13:28:54;0.50;;;0.50;;
38940;SDS011;43236;47.208;7.518;2024-01-15T13:31:41;1.13;;;0.75;;
38940;SDS011;43236;47.208;7.518;2024-01-15T13:34:30;0.68;;;0.68;;
38940;SDS011;43236;47.208;7.518;2024-01-15T13:37:17;0.70;;;0.70;;
38940;SDS011;43236;47.208;7.518;2024-01-15T13:40:06;0.80;;;0.80;;
38940;SDS011;43236;47.208;7.518;2024-01-15T13:42:55;2.20;;;0.98;;
38940;SDS011;43236;47.208;7.518;2024-01-15T13:45:42;4.85;;;1.13;;
38940;SDS011;43236;47.208;7.518;2024-01-15T13:48:29;2.28;;;1.17;;
38940;SDS011;43236;47.208;7.518;2024-01-15T13:51:16;1.02;;;0.95;;
38940;SDS011;43236;47.208;7.518;2024-01-15T13:54:03;0.90;;;0.88;;
38940;SDS011;43236;47.208;7.518;2024-01-15T13:56:52;2.15;;;1.60;;
38940;SDS011;43236;47.208;7.518;2024-01-15T13:59:39;0.60;;;0.60;;
38940;SDS011;43236;47.208;7.518;2024-01-15T14:02:26;2.15;;;1.00;;
38940;SDS011;43236;47.208;7.518;2024-01-15T14:05:13;1.13;;;1.02;;
38940;SDS011;43236;47.208;7.518;2024-01-15T14:08:00;2.10;;;1.95;;
38940;SDS011;43236;47.208;7.518;2024-01-15T14:10:47;1.77;;;1.58;;
38940;SDS011;43236;47.208;7.518;2024-01-15T14:13:35;1.70;;;1.60;;
38940;SDS011;43236;47.208;7.518;2024-01-15T14:16:23;2.47;;;1.60;;
38940;SDS011;43236;47.208;7.518;2024-01-15T14:19:11;0.95;;;0.95;;
38940;SDS011;43236;47.208;7.518;2024-01-15T14:21:58;1.25;;;1.00;;
38940;SDS011;43236;47.208;7.518;2024-01-15T14:24:45;1.48;;;1.33;;
38940;SDS011;43236;47.208;7.518;2024-01-15T14:27:32;0.82;;;0.82;;
38940;SDS011;43236;47.208;7.518;2024-01-15T14:30:20;1.50;;;1.40;;
38940;SDS011;43236;47.208;7.518;2024-01-15T14:33:07;0.93;;;0.90;;
38940;SDS011;43236;47.208;7.518;2024-01-15T14:35:54;2.10;;;1.42;;
38940;SDS011;43236;47.208;7.518;2024-01-15T14:38:41;1.30;;;1.00;;
38940;SDS011;43236;47.208;7.518;2024-01-15T14:41:29;1.50;;;1.40;;
38940;SDS011;43236;47.208;7.518;2024-01-15T14:44:16;1.95;;;1.35;;
38940;SDS011;43236;47.208;7.518;2024-01-15T14:47:05;1.23;;;1.13;;
38940;SDS011;43236;47.208;7.518;2024-01-15T14:49:53;1.10;;;1.00;;
38940;SDS011;43236;47.208;7.518;2024-01-15T14:52:42;1.17;;;0.90;;
38940;SDS011;43236;47.208;7.518;2024-01-15T14:55:30;1.42;;;1.20;;
38940;SDS011;43236;47.208;7.518;2024-01-15T14:58:17;0.70;;;0.70;;
38940;SDS011;43236;47.208;7.518;2024-01-15T15:01:04;1.92;;;1.23;;
38940;SDS011;43236;47.208;7.518;2024-01-15T15:03:53;0.73;;;0.70;;
38940;SDS011;43236;47.208;7.518;2024-01-15T15:06:40;1.02;;;0.90;;
38940;SDS011;43236;47.208;7.518;2024-01-15T15:09:27;1.25;;;1.15;;
38940;SDS011;43236;47.208;7.518;2024-01-15T15:12:14;0.95;;;0.95;;
38940;SDS011;43236;47.208;7.518;2024-01-15T15:15:01;1.17;;;1.08;;
38940;SDS011;43236;47.208;7.518;2024-01-15T15:17:48;2.22;;;1.10;;
38940;SDS011;43236;47.208;7.518;2024-01-15T15:20:36;1.35;;;1.20;;
38940;SDS011;43236;47.208;7.518;2024-01-15T15:23:24;1.13;;;1.13;;
38940;SDS011;43236;47.208;7.518;2024-01-15T15:26:11;0.93;;;0.93;;
38940;SDS011;43236;47.208;7.518;2024-01-15T15:28:58;1.70;;;1.00;;
38940;SDS011;43236;47.208;7.518;2024-01-15T15:31:45;1.85;;;1.35;;
38940;SDS011;43236;47.208;7.518;2024-01-15T15:34:34;2.20;;;1.23;;
38940;SDS011;43236;47.208;7.518;2024-01-15T15:37:22;2.08;;;1.20;;
38940;SDS011;43236;47.208;7.518;2024-01-15T15:40:09;2.20;;;1.67;;
38940;SDS011;43236;47.208;7.518;2024-01-15T15:42:58;5.13;;;2.58;;
38940;SDS011;43236;47.208;7.518;2024-01-15T15:45:45;4.07;;;2.85;;
38940;SDS011;43236;47.208;7.518;2024-01-15T15:48:32;6.03;;;2.95;;
38940;SDS011;43236;47.208;7.518;2024-01-15T15:51:20;4.22;;;2.72;;
38940;SDS011;43236;47.208;7.518;2024-01-15T15:54:09;3.08;;;2.78;;
38940;SDS011;43236;47.208;7.518;2024-01-15T15:56:56;4.05;;;2.95;;
38940;SDS011;43236;47.208;7.518;2024-01-15T15:59:43;2.95;;;2.70;;
38940;SDS011;43236;47.208;7.518;2024-01-15T16:02:30;3.63;;;2.58;;
38940;SDS011;43236;47.208;7.518;2024-01-15T16:05:17;5.97;;;3.60;;
38940;SDS011;43236;47.208;7.518;2024-01-15T16:08:05;4.30;;;2.47;;
38940;SDS011;43236;47.208;7.518;2024-01-15T16:10:53;4.78;;;2.67;;
38940;SDS011;43236;47.208;7.518;2024-01-15T16:13:40;3.75;;;3.00;;
38940;SDS011;43236;47.208;7.518;2024-01-15T16:16:27;5.30;;;3.03;;
38940;SDS011;43236;47.208;7.518;2024-01-15T16:19:14;7.60;;;4.20;;
38940;SDS011;43236;47.208;7.518;2024-01-15T16:22:02;6.90;;;4.03;;
38940;SDS011;43236;47.208;7.518;2024-01-15T16:24:50;7.60;;;3.83;;
38940;SDS011;43236;47.208;7.518;2024-01-15T16:27:38;8.95;;;4.72;;
38940;SDS011;43236;47.208;7.518;2024-01-15T16:30:26;8.52;;;4.90;;
38940;SDS011;43236;47.208;7.518;2024-01-15T16:33:13;8.45;;;5.00;;
38940;SDS011;43236;47.208;7.518;2024-01-15T16:36:00;6.05;;;2.83;;
38940;SDS011;43236;47.208;7.518;2024-01-15T16:38:47;9.52;;;5.03;;
38940;SDS011;43236;47.208;7.518;2024-01-15T16:41:34;6.80;;;4.72;;
38940;SDS011;43236;47.208;7.518;2024-01-15T16:44:23;7.65;;;5.03;;
38940;SDS011;43236;47.208;7.518;2024-01-15T16:47:10;8.07;;;4.82;;
38940;SDS011;43236;47.208;7.518;2024-01-15T16:49:57;7.70;;;4.13;;
38940;SDS011;43236;47.208;7.518;2024-01-15T16:52:45;7.95;;;3.90;;
38940;SDS011;43236;47.208;7.518;2024-01-15T16:55:32;4.47;;;3.38;;
38940;SDS011;43236;47.208;7.518;2024-01-15T16:58:19;5.40;;;2.97;;